KWYS Airport (Yellowstone) Information

FAA: WYS - ICAO: KWYS

KWYS Airport Location

State Montana
County Gallatin
City West Yellowstone
KWYS Airport is 1 miles north of West Yellowstone, MT.
Latitude 44-41-18.2000N
Longitude 111-07-03.5000W
Elevation 6,649ft

KWYS Airport METARs

METAR KWYS 060735Z AUTO 21003KT 10SM CLR 06/05 A3014 RMK AO2
Altimeter 30.14"
Temperature 6.0°C (42.8°F)
Wind 210° at 3KT
Clouds Skies are clear.
Visibility 10.0mi
Time observed: 2022-07-06T07:35:00Z

KWYS Airport Details

Status Operational
Activation November 1979
Ownership Public
Usage Public
Chart GREAT FALLS
ATC on-site No
Beacon schedule sunset-sunrise
Beacon color clear green

KWYS Airport Contacts

Owner STATE OF MONTANA
Owner address PO BOX 200507, HELENA, MT 59620
Owner phone 406-444-2506
Manager DAVID BOYD
Manager address P.O. BOX 978, THREE FORKS, MT 59752
Manager phone 406-285-6852

KWYS Airport (Yellowstone) Radio Frequencies

KWYS (Airport) Radio Frequencies

UNICOM 123
Common traffic advisory frequency (CTAF) 123